Station: Oenpelli Airport  

  Atmospheric Gas Attenuation - ITU Rec 676-11   ----------------- dB/100km -----------------
Date Time Temp RH % AH g/m3 Dew Point Wind Direction Speed kph Gust kph Barometer mB Rainfall Since 9am 24GHz 47GHz 76GHz 122GHz 134GHz 241GHz
31/08 12:50 33.5 27 9.87 11.9 15 28 1016.2 0 21.3 22.6 35.4 93.0 90.4 312.6
31/08 12:40 32.7 27 9.46 11.3 17 35 1016.5 0 20.5 22.3 34.4 90.4 86.9 300.4
31/08 12:30 33 27 9.62 11.5 22 32 1016.7 0 20.8 22.4 34.8 91.4 88.3 305.3
31/08 12:20 32.7 27 9.46 11.3 22 33 1016.9 0 20.5 22.3 34.4 90.4 86.9 300.5
31/08 12:10 33 27 9.62 11.5 19 33 1017 0 20.8 22.4 34.8 91.5 88.3 305.4
31/08 12:00 32 28 9.46 11.2 19 43 1017.2 0 20.5 22.5 34.7 91.2 87.7 303.1
31/08 11:50 31.9 28 9.41 11.1 20 32 1017.5 0 20.4 22.4 34.6 90.9 87.3 301.7
31/08 11:40 31.6 29 9.59 11.4 22 32 1017.6 0 20.8 22.8 35.4 92.8 89.6 309.6
31/08 11:30 32 28 9.46 11.2 22 35 1017.9 0 20.5 22.5 34.8 91.3 87.8 303.3
31/08 11:20 31.7 28 9.31 11 24 33 1017.9 0 20.2 22.4 34.4 90.3 86.5 298.8
31/08 11:10 31.8 28 9.36 11 24 33 1018.3 0 20.3 22.4 34.5 90.6 86.9 300.4
31/08 11:00 32.3 28 9.61 11.5 19 32 1018.5 0 20.8 22.7 35.2 92.3 89.1 308.0
31/08 10:50 31.4 28 9.16 10.7 24 39 1018.6 0 19.9 22.3 34.1 89.4 85.2 294.4
31/08 10:40 31.1 29 9.33 11 26 41 1018.7 0 20.3 22.6 34.8 91.2 87.4 301.9
31/08 10:30 30.4 30 9.3 10.9 24 35 1018.9 0 20.3 22.7 35.0 91.7 87.8 303.4
31/08 10:20 30.3 31 9.56 11.3 24 35 1018.9 0 20.8 23.1 35.9 94.1 90.8 313.7
31/08 10:10 30.4 33 10.23 12.3 20 32 1019.1 0 22.2 24.0 38.1 100.1 98.1 339.4
31/08 10:00 29.9 33 9.96 12.3 24 35 1019.1 0 21.6 23.7 37.4 98.2 95.7 330.8
31/08 09:50 29.7 35 10.44 13 22 33 1019.1 0 22.6 24.5 39.1 102.8 101.3 350.7
31/08 09:40 29.2 38 11.04 13.4 24 35 1019.1 0 23.9 25.5 41.5 109.1 108.9 377.1
31/08 09:30 28.6 39 10.96 13.3 26 41 1019 0 23.8 25.5 41.5 109.1 108.8 376.6
31/08 09:20 28.9 39 11.14 13.9 20 32 1018.9 0 24.1 25.7 42.0 110.4 110.5 382.6
31/08 09:10 28.4 41 11.4 13.9 19 33 1019 0 24.7 26.2 43.2 113.7 114.3 395.8
31/08 09:00 27.6 45 11.97 14.6 20 33 1019 0 25.9 27.3 45.7 120.4 122.4 424.0
31/08 08:50 27.5 47 12.44 15.2 17 28 1018.9 0 26.9 28.0 47.6 125.3 128.3 444.8
31/08 08:40 27.5 49 12.96 16.1 11 20 1018.9 0 28.0 28.8 49.5 130.6 134.9 467.7
31/08 08:30 27 50 12.87 15.7 13 19 1018.8 0 27.8 28.9 49.5 130.5 134.6 466.6
31/08 08:20 26.9 54 13.82 16.8 13 19 1018.7 0 29.8 30.4 53.3 140.6 147.0 510.0
31/08 08:10 26.3 56 13.86 16.8 11 15 1018.7 0 30.0 30.7 53.9 142.1 148.7 515.8
31/08 08:00 26.1 58 14.2 17.2 9 13 1018.6 0 30.7 31.3 55.4 146.1 153.6 532.8
31/08 07:50 25.4 61 14.36 17.3 7 11 1018.6 0 31.1 31.8 56.5 149.2 157.1 545.2
31/08 07:40 24.8 64 14.57 17.5 7 13 1018.5 0 31.6 32.4 57.9 152.7 161.2 559.4
31/08 07:30 24.4 66 14.69 17.6 7 11 1018.5 0 31.9 32.7 58.7 154.8 163.8 568.1
31/08 07:20 23.9 67 14.49 17.4 9 13 1018.4 0 31.5 32.6 58.2 153.5 162.0 562.0
31/08 07:10 23.5 68 14.38 17.3 9 15 1018.3 0 31.3 32.5 58.0 153.1 161.3 559.5
31/08 07:00 23.2 68 14.14 17 9 13 1018.3 0 30.8 32.2 57.2 150.9 158.6 550.0
31/08 06:50 23.1 68 14.06 16.9 9 19 1018.1 0 30.6 32.1 56.9 150.2 157.7 546.7
31/08 06:40 22.9 69 14.1 16.9 9 15 1017.9 0 30.7 32.3 57.2 151.0 158.6 550.0
31/08 06:30 23 69 14.18 17 7 13 1017.7 0 30.9 32.4 57.5 151.7 159.5 553.1
31/08 06:20 22.1 72 14.05 16.8 6 9 1017.7 0 30.7 32.5 57.6 152.0 159.6 553.2
31/08 06:10 21.8 71 13.62 16.3 2 6 1017.5 0 29.8 31.8 56.0 147.6 154.1 534.2
31/08 06:00 22.3 70 13.82 16.6 4 7 1017.3 0 30.2 32.0 56.5 148.9 155.9 540.4
31/08 05:50 22.9 66 13.49 16.4 9 15 1017.2 0 29.4 31.2 54.6 144.1 150.1 520.3
31/08 05:40 22.5 70 13.98 16.8 9 15 1017 0 30.5 32.2 57.0 150.3 157.7 546.6
31/08 05:30 20.6 82 14.67 17.4 0 2 1016.9 0 32.1 34.1 61.4 162.2 171.6 595.1
31/08 05:20 20.7 82 14.76 17.5 0 0 1016.9 0 32.3 34.2 61.8 163.0 172.7 599.0
31/08 05:10 20.7 83 14.94 17.7 0 0 1016.9 0 32.7 34.6 62.6 165.2 175.4 608.2
31/08 05:00 21 82 15.02 17.8 0 0 1016.7 0 32.8 34.6 62.7 165.5 175.8 609.8
31/08 04:50 21.4 82 15.37 18.2 0 0 1016.7 0 33.5 35.0 63.9 168.8 180.1 624.6
31/08 04:40 21.6 82 15.55 18.4 4 4 1016.7 0 33.9 35.3 64.6 170.5 182.2 632.2
31/08 04:30 21.9 81 15.63 18.5 2 4 1016.7 0 34.1 35.3 64.7 170.8 182.7 633.9
31/08 04:20 22.1 78 15.22 18.1 6 9 1016.6 0 33.2 34.5 62.7 165.5 176.2 611.2
31/08 04:10 23 71 14.59 17.5 6 9 1016.5 0 31.8 33.0 59.2 156.2 165.1 572.7
31/08 04:00 23 74 15.21 18.1 6 17 1016.4 0 33.1 34.1 61.9 163.4 173.9 603.5
31/08 03:50 23.9 69 14.93 17.9 7 15 1016.3 0 32.4 33.2 60.0 158.3 167.9 582.6
31/08 03:40 23.4 73 15.35 18.3 6 11 1016.3 0 33.3 34.2 62.2 164.2 175.0 607.3
31/08 03:30 23.2 76 15.8 18.7 6 9 1016.4 0 34.3 35.1 64.3 169.9 182.0 631.7
31/08 03:20 22.3 86 16.98 19.8 0 2 1016.5 0 36.9 37.6 70.5 186.4 201.9 700.9
31/08 03:10 22.4 84 16.68 19.5 0 0 1016.5 0 36.3 37.0 69.0 182.4 197.1 684.1
31/08 03:00 22.6 83 16.67 19.6 0 0 1016.5 0 36.2 36.9 68.8 181.8 196.4 681.8
31/08 02:50 23.1 81 16.74 19.7 2 6 1016.5 0 36.3 36.8 68.7 181.5 196.2 681.0
31/08 02:40 23.5 82 17.34 20.2 6 6 1016.5 0 37.6 37.8 71.1 187.9 204.2 708.8
31/08 02:30 23.3 83 17.35 20.2 6 7 1016.6 0 37.6 37.9 71.3 188.5 204.9 711.2
31/08 02:20 23.2 83 17.25 20.1 6 7 1016.7 0 37.4 37.7 71.0 187.5 203.6 706.9
31/08 02:10 23.3 83 17.35 20.2 4 6 1016.7 0 37.6 37.9 71.3 188.5 204.9 711.3
31/08 02:00 23.4 83 17.45 20.3 6 9 1016.9 0 37.8 38.0 71.7 189.6 206.2 715.7
31/08 01:50 23.5 82 17.34 20.2 7 9 1016.9 0 37.6 37.8 71.1 187.9 204.2 709.0
31/08 01:40 23.6 82 17.44 20.3 7 9 1017 0 37.8 37.9 71.5 188.9 205.5 713.4
31/08 01:30 23.7 82 17.54 20.4 6 7 1017.1 0 38.0 38.1 71.9 189.9 206.7 717.8
31/08 01:20 23.9 80 17.31 20.2 6 6 1017.1 0 37.5 37.5 70.6 186.6 202.7 703.8
31/08 01:10 24.1 79 17.28 20.2 4 7 1017.1 0 37.4 37.4 70.3 185.8 201.7 700.4
31/08 01:00 24.6 78 17.56 20.5 7 9 1017.2 0 37.9 37.7 71.1 188.0 204.6 710.4
31/08 00:50 24.8 78 17.75 20.7 7 11 1017.3 0 38.3 38.0 71.8 189.8 206.9 718.5
31/08 00:40 25 77 17.72 20.7 9 15 1017.3 0 38.2 37.8 71.5 189.0 205.9 715.1
31/08 00:30 25.1 77 17.82 20.8 11 17 1017.4 0 38.4 38.0 71.8 189.9 207.1 719.4
31/08 00:20 25.3 76 17.79 20.8 13 17 1017.3 0 38.3 37.8 71.5 189.1 206.1 715.9
31/08 00:10 25.2 76 17.69 20.7 11 19 1017.4 0 38.1 37.7 71.2 188.1 204.9 711.7
31/08 00:00 25.3 76 17.79 20.8 13 20 1017.3 0 38.3 37.8 71.5 189.1 206.1 715.9
30/08 23:50 25.3 76 17.79 20.8 13 19 1017.4 0 38.3 37.8 71.5 189.1 206.1 715.9
30/08 23:40 25.2 76 17.69 20.7 11 20 1017.4 0 38.1 37.7 71.2 188.1 204.9 711.7
30/08 23:30 25.2 76 17.69 20.7 9 20 1017.3 0 38.1 37.7 71.2 188.1 204.9 711.6
30/08 23:20 25.2 75 17.46 20.5 7 13 1017.1 0 37.6 37.2 70.1 185.3 201.5 699.6
30/08 23:10 25.3 74 17.32 20.3 7 9 1017.1 0 37.3 36.9 69.4 183.4 199.1 691.5
30/08 23:00 25.4 74 17.42 20.4 9 19 1017 0 37.5 37.1 69.7 184.3 200.3 695.7
30/08 22:50 25.3 73 17.09 20.1 9 17 1017 0 36.9 36.5 68.3 180.6 195.7 679.7
30/08 22:40 25.5 71 16.81 19.9 11 19 1016.9 0 36.2 35.9 66.9 176.8 191.1 663.7
30/08 22:30 25.6 70 16.67 19.7 11 17 1016.9 0 35.9 35.6 66.2 174.9 188.8 655.7
30/08 22:20 25.7 69 16.52 19.6 13 19 1016.8 0 35.6 35.3 65.4 172.9 186.4 647.3
30/08 22:10 25.5 68 16.1 19.2 11 19 1016.8 0 34.7 34.7 63.8 168.5 180.9 628.1
30/08 22:00 25.6 67 15.95 19 13 20 1016.8 0 34.4 34.4 63.0 166.5 178.5 619.8
30/08 21:50 25.5 65 15.39 18.4 11 19 1016.7 0 33.2 33.4 60.7 160.3 170.9 593.1
30/08 21:40 25.5 63 14.91 17.9 13 19 1016.6 0 32.2 32.6 58.7 154.9 164.2 569.9
30/08 21:30 25.6 62 14.76 17.8 11 17 1016.5 0 31.9 32.3 58.0 153.0 161.9 562.0
30/08 21:20 25.7 60 14.36 17.4 13 19 1016.4 0 31.1 31.6 56.2 148.4 156.3 542.2
30/08 21:10 25.8 59 14.2 17.2 15 20 1016.3 0 30.7 31.3 55.5 146.4 153.9 534.0
30/08 21:00 26.1 57 13.95 16.9 15 20 1016.1 0 30.2 30.8 54.2 143.1 150.0 520.2
30/08 20:50 26.3 56 13.86 16.8 15 24 1016 0 30.0 30.6 53.7 141.8 148.4 514.7
30/08 20:40 26.5 53 13.27 16.4 15 22 1015.9 0 28.7 29.5 51.2 135.1 140.3 486.5
30/08 20:30 26.7 52 13.16 16 17 24 1015.7 0 28.5 29.3 50.7 133.6 138.5 480.2
30/08 20:20 26.9 49 12.54 15.3 17 22 1015.5 0 27.2 28.2 48.1 126.9 130.2 451.4

Last Refresh: 31-Aug-2026 13:02:58

Bureau of Meteorology